sensor_id;sensor_type;location;lat;lon;timestamp;P1;durP1;ratioP1;P2;durP2;ratioP2
10461;SDS011;5278;42.656;23.374;2022-10-16T00:00:46;11.90;;;8.93;;
10461;SDS011;5278;42.656;23.374;2022-10-16T00:03:13;17.40;;;10.47;;
10461;SDS011;5278;42.656;23.374;2022-10-16T00:05:41;14.93;;;9.50;;
10461;SDS011;5278;42.656;23.374;2022-10-16T00:08:10;13.00;;;9.80;;
10461;SDS011;5278;42.656;23.374;2022-10-16T00:10:37;12.20;;;8.57;;
10461;SDS011;5278;42.656;23.374;2022-10-16T00:13:04;12.50;;;9.87;;
10461;SDS011;5278;42.656;23.374;2022-10-16T00:15:32;13.40;;;9.97;;
10461;SDS011;5278;42.656;23.374;2022-10-16T00:18:03;13.90;;;9.90;;
10461;SDS011;5278;42.656;23.374;2022-10-16T00:20:33;13.27;;;9.50;;
10461;SDS011;5278;42.656;23.374;2022-10-16T00:23:01;13.87;;;9.60;;
10461;SDS011;5278;42.656;23.374;2022-10-16T00:25:29;13.27;;;9.40;;
10461;SDS011;5278;42.656;23.374;2022-10-16T00:27:57;11.50;;;9.43;;
10461;SDS011;5278;42.656;23.374;2022-10-16T00:30:24;11.23;;;9.20;;
10461;SDS011;5278;42.656;23.374;2022-10-16T00:32:52;12.93;;;9.10;;
10461;SDS011;5278;42.656;23.374;2022-10-16T00:35:21;11.87;;;8.40;;
10461;SDS011;5278;42.656;23.374;2022-10-16T00:37:47;12.20;;;8.83;;
10461;SDS011;5278;42.656;23.374;2022-10-16T00:40:15;9.80;;;7.90;;
10461;SDS011;5278;42.656;23.374;2022-10-16T00:42:42;11.30;;;7.90;;
10461;SDS011;5278;42.656;23.374;2022-10-16T00:45:09;11.23;;;9.07;;
10461;SDS011;5278;42.656;23.374;2022-10-16T00:47:36;9.27;;;7.63;;
10461;SDS011;5278;42.656;23.374;2022-10-16T00:50:08;15.43;;;7.53;;
10461;SDS011;5278;42.656;23.374;2022-10-16T00:52:41;12.90;;;8.50;;
10461;SDS011;5278;42.656;23.374;2022-10-16T00:55:12;9.63;;;7.50;;
10461;SDS011;5278;42.656;23.374;2022-10-16T00:57:39;13.60;;;7.70;;
10461;SDS011;5278;42.656;23.374;2022-10-16T01:00:09;11.57;;;7.83;;
10461;SDS011;5278;42.656;23.374;2022-10-16T01:02:37;11.07;;;8.00;;
10461;SDS011;5278;42.656;23.374;2022-10-16T01:05:04;12.23;;;8.53;;
10461;SDS011;5278;42.656;23.374;2022-10-16T01:07:34;12.00;;;8.27;;
10461;SDS011;5278;42.656;23.374;2022-10-16T01:10:10;11.13;;;9.03;;
10461;SDS011;5278;42.656;23.374;2022-10-16T01:12:45;14.27;;;8.17;;
10461;SDS011;5278;42.656;23.374;2022-10-16T01:15:17;9.27;;;8.30;;
10461;SDS011;5278;42.656;23.374;2022-10-16T01:17:51;13.13;;;9.40;;
10461;SDS011;5278;42.656;23.374;2022-10-16T01:20:26;9.17;;;7.87;;
10461;SDS011;5278;42.656;23.374;2022-10-16T01:22:58;12.07;;;8.43;;
10461;SDS011;5278;42.656;23.374;2022-10-16T01:25:36;12.00;;;8.53;;
10461;SDS011;5278;42.656;23.374;2022-10-16T01:28:15;11.83;;;8.53;;
10461;SDS011;5278;42.656;23.374;2022-10-16T01:30:47;11.30;;;8.03;;
10461;SDS011;5278;42.656;23.374;2022-10-16T01:33:20;12.30;;;8.87;;
10461;SDS011;5278;42.656;23.374;2022-10-16T01:35:52;10.53;;;7.73;;
10461;SDS011;5278;42.656;23.374;2022-10-16T01:38:21;7.10;;;6.37;;
10461;SDS011;5278;42.656;23.374;2022-10-16T01:40:54;7.47;;;6.30;;
10461;SDS011;5278;42.656;23.374;2022-10-16T01:43:28;9.63;;;5.63;;
10461;SDS011;5278;42.656;23.374;2022-10-16T01:45:59;7.73;;;5.13;;
10461;SDS011;5278;42.656;23.374;2022-10-16T01:48:27;9.87;;;5.53;;
10461;SDS011;5278;42.656;23.374;2022-10-16T01:50:56;6.27;;;5.30;;
10461;SDS011;5278;42.656;23.374;2022-10-16T01:53:27;6.13;;;5.37;;
10461;SDS011;5278;42.656;23.374;2022-10-16T01:55:55;5.23;;;4.53;;
10461;SDS011;5278;42.656;23.374;2022-10-16T01:58:25;5.60;;;4.93;;
10461;SDS011;5278;42.656;23.374;2022-10-16T02:00:57;7.30;;;5.00;;
10461;SDS011;5278;42.656;23.374;2022-10-16T02:03:24;6.37;;;4.63;;
10461;SDS011;5278;42.656;23.374;2022-10-16T02:05:51;5.57;;;4.53;;
10461;SDS011;5278;42.656;23.374;2022-10-16T02:08:20;7.87;;;4.80;;
10461;SDS011;5278;42.656;23.374;2022-10-16T02:10:49;5.50;;;5.00;;
10461;SDS011;5278;42.656;23.374;2022-10-16T02:13:17;5.60;;;3.97;;
10461;SDS011;5278;42.656;23.374;2022-10-16T02:15:48;5.97;;;4.10;;
10461;SDS011;5278;42.656;23.374;2022-10-16T02:18:16;5.20;;;4.70;;
10461;SDS011;5278;42.656;23.374;2022-10-16T02:20:44;5.50;;;4.63;;
10461;SDS011;5278;42.656;23.374;2022-10-16T02:23:18;8.43;;;4.70;;
10461;SDS011;5278;42.656;23.374;2022-10-16T02:25:49;5.07;;;4.57;;
10461;SDS011;5278;42.656;23.374;2022-10-16T02:28:19;6.37;;;4.60;;
10461;SDS011;5278;42.656;23.374;2022-10-16T02:30:51;8.97;;;4.60;;
10461;SDS011;5278;42.656;23.374;2022-10-16T02:33:25;5.63;;;4.63;;
10461;SDS011;5278;42.656;23.374;2022-10-16T02:35:53;5.37;;;4.53;;
10461;SDS011;5278;42.656;23.374;2022-10-16T02:38:21;5.03;;;4.43;;
10461;SDS011;5278;42.656;23.374;2022-10-16T02:40:50;7.23;;;5.00;;
10461;SDS011;5278;42.656;23.374;2022-10-16T02:43:18;7.73;;;4.47;;
10461;SDS011;5278;42.656;23.374;2022-10-16T02:45:45;5.27;;;4.77;;
10461;SDS011;5278;42.656;23.374;2022-10-16T02:48:13;7.43;;;5.07;;
10461;SDS011;5278;42.656;23.374;2022-10-16T02:50:41;5.87;;;5.07;;
10461;SDS011;5278;42.656;23.374;2022-10-16T02:53:08;7.13;;;5.00;;
10461;SDS011;5278;42.656;23.374;2022-10-16T02:55:34;6.67;;;5.13;;
10461;SDS011;5278;42.656;23.374;2022-10-16T02:58:01;6.83;;;5.30;;
10461;SDS011;5278;42.656;23.374;2022-10-16T03:00:28;5.50;;;4.83;;
10461;SDS011;5278;42.656;23.374;2022-10-16T03:02:55;5.80;;;4.97;;
10461;SDS011;5278;42.656;23.374;2022-10-16T03:05:22;6.13;;;5.20;;
10461;SDS011;5278;42.656;23.374;2022-10-16T03:07:50;8.70;;;5.97;;
10461;SDS011;5278;42.656;23.374;2022-10-16T03:10:17;7.97;;;4.93;;
10461;SDS011;5278;42.656;23.374;2022-10-16T03:12:44;6.67;;;5.07;;
10461;SDS011;5278;42.656;23.374;2022-10-16T03:15:11;7.33;;;5.27;;
10461;SDS011;5278;42.656;23.374;2022-10-16T03:17:38;7.83;;;5.20;;
10461;SDS011;5278;42.656;23.374;2022-10-16T03:20:05;6.50;;;5.43;;
10461;SDS011;5278;42.656;23.374;2022-10-16T03:22:32;6.43;;;5.57;;
10461;SDS011;5278;42.656;23.374;2022-10-16T03:25:01;6.77;;;5.63;;
10461;SDS011;5278;42.656;23.374;2022-10-16T03:27:28;7.37;;;5.67;;
10461;SDS011;5278;42.656;23.374;2022-10-16T03:29:55;6.80;;;5.10;;
10461;SDS011;5278;42.656;23.374;2022-10-16T03:32:21;6.37;;;5.67;;
10461;SDS011;5278;42.656;23.374;2022-10-16T03:34:50;7.27;;;6.53;;
10461;SDS011;5278;42.656;23.374;2022-10-16T03:37:18;7.83;;;6.43;;
10461;SDS011;5278;42.656;23.374;2022-10-16T03:39:44;6.83;;;5.87;;
10461;SDS011;5278;42.656;23.374;2022-10-16T03:42:12;6.40;;;5.67;;
10461;SDS011;5278;42.656;23.374;2022-10-16T03:44:39;8.17;;;5.50;;
10461;SDS011;5278;42.656;23.374;2022-10-16T03:47:20;7.83;;;5.67;;
10461;SDS011;5278;42.656;23.374;2022-10-16T03:49:48;9.43;;;6.10;;
10461;SDS011;5278;42.656;23.374;2022-10-16T03:52:15;6.77;;;5.50;;
10461;SDS011;5278;42.656;23.374;2022-10-16T03:54:42;7.67;;;5.83;;
10461;SDS011;5278;42.656;23.374;2022-10-16T03:57:09;6.73;;;5.90;;
10461;SDS011;5278;42.656;23.374;2022-10-16T03:59:37;9.27;;;5.93;;
10461;SDS011;5278;42.656;23.374;2022-10-16T04:02:04;6.73;;;5.73;;
10461;SDS011;5278;42.656;23.374;2022-10-16T04:04:31;7.03;;;5.77;;
10461;SDS011;5278;42.656;23.374;2022-10-16T04:06:57;6.90;;;5.87;;
10461;SDS011;5278;42.656;23.374;2022-10-16T04:09:25;7.37;;;5.83;;
10461;SDS011;5278;42.656;23.374;2022-10-16T04:11:51;9.57;;;6.73;;
10461;SDS011;5278;42.656;23.374;2022-10-16T04:14:18;8.87;;;5.80;;
10461;SDS011;5278;42.656;23.374;2022-10-16T04:16:47;7.50;;;5.83;;
10461;SDS011;5278;42.656;23.374;2022-10-16T04:19:13;8.40;;;6.90;;
10461;SDS011;5278;42.656;23.374;2022-10-16T04:21:40;7.17;;;6.47;;
10461;SDS011;5278;42.656;23.374;2022-10-16T04:24:07;7.83;;;6.73;;
10461;SDS011;5278;42.656;23.374;2022-10-16T04:26:35;7.93;;;6.67;;
10461;SDS011;5278;42.656;23.374;2022-10-16T04:29:02;7.73;;;6.37;;
10461;SDS011;5278;42.656;23.374;2022-10-16T04:31:29;10.20;;;7.00;;
10461;SDS011;5278;42.656;23.374;2022-10-16T04:33:58;9.37;;;6.40;;
10461;SDS011;5278;42.656;23.374;2022-10-16T04:36:25;6.97;;;6.23;;
10461;SDS011;5278;42.656;23.374;2022-10-16T04:38:52;7.23;;;6.17;;
10461;SDS011;5278;42.656;23.374;2022-10-16T04:41:19;6.77;;;5.93;;
10461;SDS011;5278;42.656;23.374;2022-10-16T04:43:46;7.27;;;6.50;;
10461;SDS011;5278;42.656;23.374;2022-10-16T04:46:12;8.03;;;6.17;;
10461;SDS011;5278;42.656;23.374;2022-10-16T04:48:39;8.50;;;6.30;;
10461;SDS011;5278;42.656;23.374;2022-10-16T04:51:07;8.83;;;6.77;;
10461;SDS011;5278;42.656;23.374;2022-10-16T04:53:34;8.00;;;6.33;;
10461;SDS011;5278;42.656;23.374;2022-10-16T04:56:01;8.63;;;6.97;;
10461;SDS011;5278;42.656;23.374;2022-10-16T04:58:28;9.20;;;7.67;;
10461;SDS011;5278;42.656;23.374;2022-10-16T05:00:55;15.70;;;9.57;;
10461;SDS011;5278;42.656;23.374;2022-10-16T05:03:22;10.20;;;7.37;;
10461;SDS011;5278;42.656;23.374;2022-10-16T05:05:48;10.33;;;7.40;;
10461;SDS011;5278;42.656;23.374;2022-10-16T05:08:17;10.70;;;6.60;;
10461;SDS011;5278;42.656;23.374;2022-10-16T05:10:44;11.47;;;6.90;;
10461;SDS011;5278;42.656;23.374;2022-10-16T05:13:11;9.60;;;7.10;;
10461;SDS011;5278;42.656;23.374;2022-10-16T05:15:38;8.37;;;6.73;;
10461;SDS011;5278;42.656;23.374;2022-10-16T05:18:05;9.23;;;6.43;;
10461;SDS011;5278;42.656;23.374;2022-10-16T05:20:32;10.03;;;7.00;;
10461;SDS011;5278;42.656;23.374;2022-10-16T05:22:59;12.17;;;7.10;;
10461;SDS011;5278;42.656;23.374;2022-10-16T05:25:27;8.90;;;7.03;;
10461;SDS011;5278;42.656;23.374;2022-10-16T05:27:54;9.13;;;6.87;;
10461;SDS011;5278;42.656;23.374;2022-10-16T05:30:21;7.53;;;6.40;;
10461;SDS011;5278;42.656;23.374;2022-10-16T05:32:48;9.60;;;6.87;;
10461;SDS011;5278;42.656;23.374;2022-10-16T05:35:16;8.50;;;6.67;;
10461;SDS011;5278;42.656;23.374;2022-10-16T05:37:44;10.93;;;7.50;;
10461;SDS011;5278;42.656;23.374;2022-10-16T05:40:11;5.63;;;5.03;;
10461;SDS011;5278;42.656;23.374;2022-10-16T05:42:40;8.67;;;4.80;;
10461;SDS011;5278;42.656;23.374;2022-10-16T05:45:08;8.13;;;4.90;;
10461;SDS011;5278;42.656;23.374;2022-10-16T05:47:36;5.20;;;4.70;;
10461;SDS011;5278;42.656;23.374;2022-10-16T05:50:04;5.50;;;4.80;;
10461;SDS011;5278;42.656;23.374;2022-10-16T05:52:31;5.70;;;4.60;;
10461;SDS011;5278;42.656;23.374;2022-10-16T05:54:58;11.67;;;5.20;;
10461;SDS011;5278;42.656;23.374;2022-10-16T05:57:24;5.10;;;4.57;;
10461;SDS011;5278;42.656;23.374;2022-10-16T05:59:52;6.23;;;5.10;;
10461;SDS011;5278;42.656;23.374;2022-10-16T06:02:19;7.33;;;5.17;;
10461;SDS011;5278;42.656;23.374;2022-10-16T06:04:46;6.13;;;4.97;;
10461;SDS011;5278;42.656;23.374;2022-10-16T06:07:13;8.57;;;4.70;;
10461;SDS011;5278;42.656;23.374;2022-10-16T06:09:40;12.53;;;9.47;;
10461;SDS011;5278;42.656;23.374;2022-10-16T06:12:06;6.90;;;5.50;;
10461;SDS011;5278;42.656;23.374;2022-10-16T06:14:33;5.87;;;5.03;;
10461;SDS011;5278;42.656;23.374;2022-10-16T06:17:01;7.13;;;6.27;;
10461;SDS011;5278;42.656;23.374;2022-10-16T06:19:28;5.47;;;4.97;;
10461;SDS011;5278;42.656;23.374;2022-10-16T06:21:56;6.60;;;5.40;;
10461;SDS011;5278;42.656;23.374;2022-10-16T06:24:24;8.97;;;6.50;;
10461;SDS011;5278;42.656;23.374;2022-10-16T06:26:51;10.90;;;7.00;;
10461;SDS011;5278;42.656;23.374;2022-10-16T06:29:18;4.80;;;4.40;;
10461;SDS011;5278;42.656;23.374;2022-10-16T06:31:45;6.40;;;5.23;;
10461;SDS011;5278;42.656;23.374;2022-10-16T06:34:13;6.20;;;5.30;;
10461;SDS011;5278;42.656;23.374;2022-10-16T06:36:40;8.70;;;5.40;;
10461;SDS011;5278;42.656;23.374;2022-10-16T06:39:08;8.77;;;6.53;;
10461;SDS011;5278;42.656;23.374;2022-10-16T06:41:35;10.53;;;8.40;;
10461;SDS011;5278;42.656;23.374;2022-10-16T06:44:04;7.47;;;6.30;;
10461;SDS011;5278;42.656;23.374;2022-10-16T06:46:31;7.23;;;5.27;;
10461;SDS011;5278;42.656;23.374;2022-10-16T06:48:58;8.03;;;5.53;;
10461;SDS011;5278;42.656;23.374;2022-10-16T06:51:27;6.70;;;5.57;;
10461;SDS011;5278;42.656;23.374;2022-10-16T06:53:55;10.27;;;7.23;;
10461;SDS011;5278;42.656;23.374;2022-10-16T06:56:23;8.33;;;5.50;;
10461;SDS011;5278;42.656;23.374;2022-10-16T06:58:52;9.80;;;5.47;;
10461;SDS011;5278;42.656;23.374;2022-10-16T07:01:20;6.40;;;5.83;;
10461;SDS011;5278;42.656;23.374;2022-10-16T07:03:49;6.80;;;5.97;;
10461;SDS011;5278;42.656;23.374;2022-10-16T07:06:17;7.77;;;6.13;;
10461;SDS011;5278;42.656;23.374;2022-10-16T07:08:46;7.77;;;6.20;;
10461;SDS011;5278;42.656;23.374;2022-10-16T07:11:14;8.77;;;6.33;;
10461;SDS011;5278;42.656;23.374;2022-10-16T07:13:42;6.40;;;5.80;;
10461;SDS011;5278;42.656;23.374;2022-10-16T07:16:11;13.60;;;9.93;;
10461;SDS011;5278;42.656;23.374;2022-10-16T07:18:40;7.93;;;6.73;;
10461;SDS011;5278;42.656;23.374;2022-10-16T07:21:09;7.43;;;6.63;;
10461;SDS011;5278;42.656;23.374;2022-10-16T07:23:38;10.83;;;8.37;;
10461;SDS011;5278;42.656;23.374;2022-10-16T07:26:09;7.77;;;6.97;;
10461;SDS011;5278;42.656;23.374;2022-10-16T07:28:36;7.60;;;6.80;;
10461;SDS011;5278;42.656;23.374;2022-10-16T07:31:05;7.83;;;7.03;;
10461;SDS011;5278;42.656;23.374;2022-10-16T07:33:35;7.20;;;6.40;;
10461;SDS011;5278;42.656;23.374;2022-10-16T07:36:04;10.30;;;6.80;;
10461;SDS011;5278;42.656;23.374;2022-10-16T07:38:31;9.23;;;8.27;;
10461;SDS011;5278;42.656;23.374;2022-10-16T07:40:58;9.33;;;6.90;;
10461;SDS011;5278;42.656;23.374;2022-10-16T07:43:28;10.83;;;9.73;;
10461;SDS011;5278;42.656;23.374;2022-10-16T07:45:55;11.93;;;6.83;;
10461;SDS011;5278;42.656;23.374;2022-10-16T07:48:22;6.93;;;5.90;;
10461;SDS011;5278;42.656;23.374;2022-10-16T07:50:56;13.77;;;7.10;;
10461;SDS011;5278;42.656;23.374;2022-10-16T07:53:23;10.93;;;7.90;;
10461;SDS011;5278;42.656;23.374;2022-10-16T07:55:50;11.03;;;8.93;;
10461;SDS011;5278;42.656;23.374;2022-10-16T07:58:17;10.10;;;7.13;;
10461;SDS011;5278;42.656;23.374;2022-10-16T08:00:45;8.90;;;7.47;;
10461;SDS011;5278;42.656;23.374;2022-10-16T08:03:12;6.60;;;5.63;;
10461;SDS011;5278;42.656;23.374;2022-10-16T08:05:39;10.03;;;6.30;;
10461;SDS011;5278;42.656;23.374;2022-10-16T08:08:06;7.80;;;5.60;;
10461;SDS011;5278;42.656;23.374;2022-10-16T08:10:33;6.20;;;5.70;;
10461;SDS011;5278;42.656;23.374;2022-10-16T08:13:00;6.25;;;5.68;;
10461;SDS011;5278;42.656;23.374;2022-10-16T08:15:26;7.55;;;6.07;;
10461;SDS011;5278;42.656;23.374;2022-10-16T08:17:55;6.07;;;5.13;;
10461;SDS011;5278;42.656;23.374;2022-10-16T08:20:24;7.13;;;5.35;;
10461;SDS011;5278;42.656;23.374;2022-10-16T08:22:51;6.95;;;5.90;;
10461;SDS011;5278;42.656;23.374;2022-10-16T08:25:19;7.55;;;6.75;;
10461;SDS011;5278;42.656;23.374;2022-10-16T08:27:46;9.25;;;6.75;;
10461;SDS011;5278;42.656;23.374;2022-10-16T08:30:13;11.93;;;5.90;;
10461;SDS011;5278;42.656;23.374;2022-10-16T08:32:41;7.38;;;5.45;;
10461;SDS011;5278;42.656;23.374;2022-10-16T08:35:10;5.45;;;4.13;;
10461;SDS011;5278;42.656;23.374;2022-10-16T08:37:38;6.35;;;5.15;;
10461;SDS011;5278;42.656;23.374;2022-10-16T08:40:06;9.00;;;5.20;;
10461;SDS011;5278;42.656;23.374;2022-10-16T08:42:43;6.18;;;4.18;;
10461;SDS011;5278;42.656;23.374;2022-10-16T08:45:23;5.32;;;4.82;;
10461;SDS011;5278;42.656;23.374;2022-10-16T08:48:14;6.68;;;4.70;;
10461;SDS011;5278;42.656;23.374;2022-10-16T08:50:47;5.53;;;4.90;;
10461;SDS011;5278;42.656;23.374;2022-10-16T08:53:18;5.15;;;4.32;;
10461;SDS011;5278;42.656;23.374;2022-10-16T08:55:50;4.15;;;3.75;;
10461;SDS011;5278;42.656;23.374;2022-10-16T08:58:18;4.47;;;3.67;;
10461;SDS011;5278;42.656;23.374;2022-10-16T09:00:47;5.10;;;4.60;;
10461;SDS011;5278;42.656;23.374;2022-10-16T09:03:18;5.03;;;4.53;;
10461;SDS011;5278;42.656;23.374;2022-10-16T09:06:07;4.60;;;3.85;;
10461;SDS011;5278;42.656;23.374;2022-10-16T09:08:46;8.65;;;4.50;;
10461;SDS011;5278;42.656;23.374;2022-10-16T09:11:29;5.32;;;4.40;;
10461;SDS011;5278;42.656;23.374;2022-10-16T09:14:06;4.95;;;4.47;;
10461;SDS011;5278;42.656;23.374;2022-10-16T09:16:48;6.20;;;4.38;;
10461;SDS011;5278;42.656;23.374;2022-10-16T09:19:23;4.68;;;4.10;;
10461;SDS011;5278;42.656;23.374;2022-10-16T09:21:58;8.10;;;4.13;;
10461;SDS011;5278;42.656;23.374;2022-10-16T09:24:29;4.07;;;3.78;;
10461;SDS011;5278;42.656;23.374;2022-10-16T09:26:56;7.05;;;4.40;;
10461;SDS011;5278;42.656;23.374;2022-10-16T09:29:22;4.53;;;4.00;;
10461;SDS011;5278;42.656;23.374;2022-10-16T09:31:50;10.30;;;7.47;;
10461;SDS011;5278;42.656;23.374;2022-10-16T09:34:26;5.07;;;3.65;;
10461;SDS011;5278;42.656;23.374;2022-10-16T09:36:56;4.13;;;3.78;;
10461;SDS011;5278;42.656;23.374;2022-10-16T09:39:26;4.28;;;3.20;;
10461;SDS011;5278;42.656;23.374;2022-10-16T09:41:53;4.45;;;3.80;;
10461;SDS011;5278;42.656;23.374;2022-10-16T09:44:23;6.47;;;5.10;;
10461;SDS011;5278;42.656;23.374;2022-10-16T09:47:02;4.45;;;3.90;;
10461;SDS011;5278;42.656;23.374;2022-10-16T09:49:32;5.10;;;4.15;;
10461;SDS011;5278;42.656;23.374;2022-10-16T09:52:04;5.18;;;3.90;;
10461;SDS011;5278;42.656;23.374;2022-10-16T09:54:31;5.63;;;4.05;;
10461;SDS011;5278;42.656;23.374;2022-10-16T09:57:05;4.38;;;2.83;;
10461;SDS011;5278;42.656;23.374;2022-10-16T09:59:32;5.82;;;4.07;;
10461;SDS011;5278;42.656;23.374;2022-10-16T10:02:01;4.50;;;3.47;;
10461;SDS011;5278;42.656;23.374;2022-10-16T10:04:37;4.38;;;3.25;;
10461;SDS011;5278;42.656;23.374;2022-10-16T10:07:07;3.50;;;3.20;;
10461;SDS011;5278;42.656;23.374;2022-10-16T10:09:44;3.83;;;3.40;;
10461;SDS011;5278;42.656;23.374;2022-10-16T10:12:16;4.22;;;3.33;;
10461;SDS011;5278;42.656;23.374;2022-10-16T10:14:46;4.78;;;3.38;;
10461;SDS011;5278;42.656;23.374;2022-10-16T10:17:15;4.45;;;4.05;;
10461;SDS011;5278;42.656;23.374;2022-10-16T10:19:47;4.45;;;4.05;;
10461;SDS011;5278;42.656;23.374;2022-10-16T10:22:30;3.65;;;3.35;;
10461;SDS011;5278;42.656;23.374;2022-10-16T10:27:53;3.47;;;3.17;;
10461;SDS011;5278;42.656;23.374;2022-10-16T10:30:32;3.22;;;2.92;;
10461;SDS011;5278;42.656;23.374;2022-10-16T10:33:09;3.47;;;3.17;;
10461;SDS011;5278;42.656;23.374;2022-10-16T10:35:47;7.95;;;3.25;;
10461;SDS011;5278;42.656;23.374;2022-10-16T10:38:24;3.58;;;3.28;;
10461;SDS011;5278;42.656;23.374;2022-10-16T10:41:01;5.72;;;3.85;;
10461;SDS011;5278;42.656;23.374;2022-10-16T10:43:44;5.75;;;3.25;;
10461;SDS011;5278;42.656;23.374;2022-10-16T10:46:22;3.58;;;3.28;;
10461;SDS011;5278;42.656;23.374;2022-10-16T10:49:02;4.57;;;2.92;;
10461;SDS011;5278;42.656;23.374;2022-10-16T10:51:39;6.85;;;3.55;;
10461;SDS011;5278;42.656;23.374;2022-10-16T10:54:16;4.85;;;3.17;;
10461;SDS011;5278;42.656;23.374;2022-10-16T10:56:51;3.38;;;3.08;;
10461;SDS011;5278;42.656;23.374;2022-10-16T11:02:28;3.00;;;2.80;;
10461;SDS011;5278;42.656;23.374;2022-10-16T11:08:10;2.83;;;2.55;;
10461;SDS011;5278;42.656;23.374;2022-10-16T11:10:57;2.63;;;2.42;;
10461;SDS011;5278;42.656;23.374;2022-10-16T11:13:28;4.90;;;2.95;;
10461;SDS011;5278;42.656;23.374;2022-10-16T11:16:00;2.90;;;2.70;;
10461;SDS011;5278;42.656;23.374;2022-10-16T11:18:38;6.63;;;5.97;;
10461;SDS011;5278;42.656;23.374;2022-10-16T11:21:15;3.35;;;3.05;;
10461;SDS011;5278;42.656;23.374;2022-10-16T11:23:47;3.20;;;2.90;;
10461;SDS011;5278;42.656;23.374;2022-10-16T11:26:20;3.80;;;3.25;;
10461;SDS011;5278;42.656;23.374;2022-10-16T11:28:50;3.70;;;3.40;;
10461;SDS011;5278;42.656;23.374;2022-10-16T11:31:22;3.40;;;3.10;;
10461;SDS011;5278;42.656;23.374;2022-10-16T11:33:55;3.58;;;3.28;;
10461;SDS011;5278;42.656;23.374;2022-10-16T11:36:30;3.10;;;2.83;;
10461;SDS011;5278;42.656;23.374;2022-10-16T11:39:04;3.47;;;3.17;;
10461;SDS011;5278;42.656;23.374;2022-10-16T11:41:45;2.70;;;2.50;;
10461;SDS011;5278;42.656;23.374;2022-10-16T11:44:23;3.72;;;2.85;;
10461;SDS011;5278;42.656;23.374;2022-10-16T11:47:08;2.97;;;2.73;;
10461;SDS011;5278;42.656;23.374;2022-10-16T11:49:42;4.00;;;3.13;;
10461;SDS011;5278;42.656;23.374;2022-10-16T11:52:13;3.37;;;3.07;;
10461;SDS011;5278;42.656;23.374;2022-10-16T11:54:47;2.80;;;2.60;;
10461;SDS011;5278;42.656;23.374;2022-10-16T11:57:20;3.47;;;2.60;;
10461;SDS011;5278;42.656;23.374;2022-10-16T11:59:51;4.53;;;3.00;;
10461;SDS011;5278;42.656;23.374;2022-10-16T12:05:18;3.20;;;2.63;;
10461;SDS011;5278;42.656;23.374;2022-10-16T12:07:55;3.07;;;2.77;;
10461;SDS011;5278;42.656;23.374;2022-10-16T12:10:31;2.97;;;2.53;;
10461;SDS011;5278;42.656;23.374;2022-10-16T12:13:03;3.73;;;2.70;;
10461;SDS011;5278;42.656;23.374;2022-10-16T12:15:31;2.90;;;2.67;;
10461;SDS011;5278;42.656;23.374;2022-10-16T12:17:59;2.60;;;2.40;;
10461;SDS011;5278;42.656;23.374;2022-10-16T12:20:28;4.70;;;2.77;;
10461;SDS011;5278;42.656;23.374;2022-10-16T12:22:58;3.57;;;3.00;;
10461;SDS011;5278;42.656;23.374;2022-10-16T12:25:28;3.20;;;2.83;;
10461;SDS011;5278;42.656;23.374;2022-10-16T12:27:57;2.50;;;2.30;;
10461;SDS011;5278;42.656;23.374;2022-10-16T12:30:31;3.67;;;2.37;;
10461;SDS011;5278;42.656;23.374;2022-10-16T12:33:00;2.80;;;2.40;;
10461;SDS011;5278;42.656;23.374;2022-10-16T12:35:29;2.90;;;2.60;;
10461;SDS011;5278;42.656;23.374;2022-10-16T12:38:06;3.00;;;2.77;;
10461;SDS011;5278;42.656;23.374;2022-10-16T12:40:38;4.20;;;2.73;;
10461;SDS011;5278;42.656;23.374;2022-10-16T12:43:27;3.00;;;2.60;;
10461;SDS011;5278;42.656;23.374;2022-10-16T12:46:03;2.93;;;2.40;;
10461;SDS011;5278;42.656;23.374;2022-10-16T12:48:45;4.47;;;3.03;;
10461;SDS011;5278;42.656;23.374;2022-10-16T12:51:21;5.63;;;2.93;;
10461;SDS011;5278;42.656;23.374;2022-10-16T12:54:00;5.40;;;3.00;;
10461;SDS011;5278;42.656;23.374;2022-10-16T12:56:28;4.37;;;3.07;;
10461;SDS011;5278;42.656;23.374;2022-10-16T12:59:09;2.93;;;2.70;;
10461;SDS011;5278;42.656;23.374;2022-10-16T13:01:51;4.17;;;3.20;;
10461;SDS011;5278;42.656;23.374;2022-10-16T13:04:30;3.37;;;2.57;;
10461;SDS011;5278;42.656;23.374;2022-10-16T13:07:18;3.30;;;3.00;;
10461;SDS011;5278;42.656;23.374;2022-10-16T13:09:59;3.60;;;3.03;;
10461;SDS011;5278;42.656;23.374;2022-10-16T13:12:44;3.47;;;3.00;;
10461;SDS011;5278;42.656;23.374;2022-10-16T13:15:27;5.53;;;3.83;;
10461;SDS011;5278;42.656;23.374;2022-10-16T13:18:03;6.87;;;3.70;;
10461;SDS011;5278;42.656;23.374;2022-10-16T13:20:46;5.67;;;3.57;;
10461;SDS011;5278;42.656;23.374;2022-10-16T13:23:33;3.20;;;2.90;;
10461;SDS011;5278;42.656;23.374;2022-10-16T13:26:09;2.67;;;2.47;;
10461;SDS011;5278;42.656;23.374;2022-10-16T13:28:43;5.77;;;3.50;;
10461;SDS011;5278;42.656;23.374;2022-10-16T13:31:15;4.43;;;2.80;;
10461;SDS011;5278;42.656;23.374;2022-10-16T13:33:45;3.73;;;3.00;;
10461;SDS011;5278;42.656;23.374;2022-10-16T13:36:19;5.03;;;3.10;;
10461;SDS011;5278;42.656;23.374;2022-10-16T13:38:48;3.13;;;2.80;;
10461;SDS011;5278;42.656;23.374;2022-10-16T13:41:16;6.73;;;5.73;;
10461;SDS011;5278;42.656;23.374;2022-10-16T13:43:45;3.77;;;2.60;;
10461;SDS011;5278;42.656;23.374;2022-10-16T13:46:18;3.27;;;2.97;;
10461;SDS011;5278;42.656;23.374;2022-10-16T13:48:56;3.53;;;3.23;;
10461;SDS011;5278;42.656;23.374;2022-10-16T13:51:23;6.00;;;3.17;;
10461;SDS011;5278;42.656;23.374;2022-10-16T13:53:50;5.03;;;2.90;;
10461;SDS011;5278;42.656;23.374;2022-10-16T13:56:17;3.80;;;2.60;;
10461;SDS011;5278;42.656;23.374;2022-10-16T13:58:46;6.47;;;3.70;;
10461;SDS011;5278;42.656;23.374;2022-10-16T14:01:25;4.83;;;3.20;;
10461;SDS011;5278;42.656;23.374;2022-10-16T14:03:59;3.10;;;2.80;;
10461;SDS011;5278;42.656;23.374;2022-10-16T14:06:31;3.43;;;3.13;;
10461;SDS011;5278;42.656;23.374;2022-10-16T14:09:13;3.70;;;2.87;;
10461;SDS011;5278;42.656;23.374;2022-10-16T14:11:48;3.07;;;2.53;;
10461;SDS011;5278;42.656;23.374;2022-10-16T14:14:20;3.30;;;3.00;;
10461;SDS011;5278;42.656;23.374;2022-10-16T14:16:48;3.47;;;2.80;;
10461;SDS011;5278;42.656;23.374;2022-10-16T14:19:17;3.00;;;2.80;;
10461;SDS011;5278;42.656;23.374;2022-10-16T14:21:47;4.33;;;2.53;;
10461;SDS011;5278;42.656;23.374;2022-10-16T14:24:19;2.93;;;2.63;;
10461;SDS011;5278;42.656;23.374;2022-10-16T14:26:51;2.80;;;2.60;;
10461;SDS011;5278;42.656;23.374;2022-10-16T14:29:20;5.93;;;2.90;;
10461;SDS011;5278;42.656;23.374;2022-10-16T14:31:55;4.83;;;2.50;;
10461;SDS011;5278;42.656;23.374;2022-10-16T14:34:28;3.00;;;2.70;;
10461;SDS011;5278;42.656;23.374;2022-10-16T14:36:58;3.83;;;2.57;;
10461;SDS011;5278;42.656;23.374;2022-10-16T14:39:29;3.20;;;2.90;;
10461;SDS011;5278;42.656;23.374;2022-10-16T14:41:56;3.10;;;2.80;;
10461;SDS011;5278;42.656;23.374;2022-10-16T14:44:27;3.43;;;2.70;;
10461;SDS011;5278;42.656;23.374;2022-10-16T14:46:58;4.07;;;2.67;;
10461;SDS011;5278;42.656;23.374;2022-10-16T14:49:33;4.50;;;2.77;;
10461;SDS011;5278;42.656;23.374;2022-10-16T14:52:00;3.70;;;3.20;;
10461;SDS011;5278;42.656;23.374;2022-10-16T14:54:28;4.47;;;2.93;;
10461;SDS011;5278;42.656;23.374;2022-10-16T14:56:55;3.53;;;2.60;;
10461;SDS011;5278;42.656;23.374;2022-10-16T14:59:25;2.63;;;2.43;;
10461;SDS011;5278;42.656;23.374;2022-10-16T15:01:54;4.50;;;2.87;;
10461;SDS011;5278;42.656;23.374;2022-10-16T15:04:23;4.00;;;2.50;;
10461;SDS011;5278;42.656;23.374;2022-10-16T15:06:50;3.70;;;2.70;;
10461;SDS011;5278;42.656;23.374;2022-10-16T15:09:16;3.87;;;2.73;;
10461;SDS011;5278;42.656;23.374;2022-10-16T15:11:43;3.50;;;3.07;;
10461;SDS011;5278;42.656;23.374;2022-10-16T15:14:11;7.03;;;3.33;;
10461;SDS011;5278;42.656;23.374;2022-10-16T15:16:38;6.03;;;3.13;;